sensor_id;sensor_type;location;lat;lon;timestamp;temperature;humidity
75685;HTU21D;64298;46.050;38.164;2024-03-22T00:00:07;3.78;69.34
75685;HTU21D;64298;46.050;38.164;2024-03-22T00:02:39;3.75;69.54
75685;HTU21D;64298;46.050;38.164;2024-03-22T00:05:05;3.72;69.46
75685;HTU21D;64298;46.050;38.164;2024-03-22T00:07:31;3.64;69.95
75685;HTU21D;64298;46.050;38.164;2024-03-22T00:09:57;3.60;70.31
75685;HTU21D;64298;46.050;38.164;2024-03-22T00:12:23;3.58;70.37
75685;HTU21D;64298;46.050;38.164;2024-03-22T00:14:49;3.59;70.14
75685;HTU21D;64298;46.050;38.164;2024-03-22T00:17:17;3.60;70.20
75685;HTU21D;64298;46.050;38.164;2024-03-22T00:19:43;3.56;70.56
75685;HTU21D;64298;46.050;38.164;2024-03-22T00:22:09;3.49;70.79
75685;HTU21D;64298;46.050;38.164;2024-03-22T00:24:35;3.44;70.97
75685;HTU21D;64298;46.050;38.164;2024-03-22T00:27:00;3.41;71.00
75685;HTU21D;64298;46.050;38.164;2024-03-22T00:29:26;3.38;71.18
75685;HTU21D;64298;46.050;38.164;2024-03-22T00:32:11;3.38;70.99
75685;HTU21D;64298;46.050;38.164;2024-03-22T00:34:37;3.35;71.05
75685;HTU21D;64298;46.050;38.164;2024-03-22T00:37:03;3.33;71.07
75685;HTU21D;64298;46.050;38.164;2024-03-22T00:39:29;3.33;70.97
75685;HTU21D;64298;46.050;38.164;2024-03-22T00:41:55;3.34;70.79
75685;HTU21D;64298;46.050;38.164;2024-03-22T00:44:21;3.33;70.93
75685;HTU21D;64298;46.050;38.164;2024-03-22T00:46:47;3.33;70.90
75685;HTU21D;64298;46.050;38.164;2024-03-22T00:49:13;3.30;70.97
75685;HTU21D;64298;46.050;38.164;2024-03-22T00:51:39;3.29;70.85
75685;HTU21D;64298;46.050;38.164;2024-03-22T00:54:05;3.29;70.88
75685;HTU21D;64298;46.050;38.164;2024-03-22T00:56:31;3.29;70.67
75685;HTU21D;64298;46.050;38.164;2024-03-22T00:59:15;3.31;70.75
75685;HTU21D;64298;46.050;38.164;2024-03-22T01:01:42;3.28;70.85
75685;HTU21D;64298;46.050;38.164;2024-03-22T01:04:08;3.19;70.98
75685;HTU21D;64298;46.050;38.164;2024-03-22T01:06:35;3.12;71.13
75685;HTU21D;64298;46.050;38.164;2024-03-22T01:09:00;3.11;71.27
75685;HTU21D;64298;46.050;38.164;2024-03-22T01:11:29;3.10;71.51
75685;HTU21D;64298;46.050;38.164;2024-03-22T01:13:55;3.03;71.47
75685;HTU21D;64298;46.050;38.164;2024-03-22T01:16:21;3.02;71.41
75685;HTU21D;64298;46.050;38.164;2024-03-22T01:18:47;3.02;71.58
75685;HTU21D;64298;46.050;38.164;2024-03-22T01:21:13;3.01;71.43
75685;HTU21D;64298;46.050;38.164;2024-03-22T01:23:39;2.99;71.61
75685;HTU21D;64298;46.050;38.164;2024-03-22T01:26:05;2.99;71.55
75685;HTU21D;64298;46.050;38.164;2024-03-22T01:28:31;2.98;71.77
75685;HTU21D;64298;46.050;38.164;2024-03-22T01:30:57;2.96;71.66
75685;HTU21D;64298;46.050;38.164;2024-03-22T01:33:23;2.95;71.97
75685;HTU21D;64298;46.050;38.164;2024-03-22T01:35:49;2.89;72.09
75685;HTU21D;64298;46.050;38.164;2024-03-22T01:38:15;2.85;71.94
75685;HTU21D;64298;46.050;38.164;2024-03-22T01:40:41;2.86;71.74
75685;HTU21D;64298;46.050;38.164;2024-03-22T01:43:07;2.88;71.76
75685;HTU21D;64298;46.050;38.164;2024-03-22T01:45:33;2.88;71.77
75685;HTU21D;64298;46.050;38.164;2024-03-22T01:48:00;2.82;72.11
75685;HTU21D;64298;46.050;38.164;2024-03-22T01:50:27;2.74;72.30
75685;HTU21D;64298;46.050;38.164;2024-03-22T01:52:53;2.68;72.54
75685;HTU21D;64298;46.050;38.164;2024-03-22T01:55:19;2.62;72.98
75685;HTU21D;64298;46.050;38.164;2024-03-22T01:57:48;2.57;73.09
75685;HTU21D;64298;46.050;38.164;2024-03-22T02:00:16;2.50;73.23
75685;HTU21D;64298;46.050;38.164;2024-03-22T02:02:42;2.44;73.35
75685;HTU21D;64298;46.050;38.164;2024-03-22T02:05:17;2.42;73.54
75685;HTU21D;64298;46.050;38.164;2024-03-22T02:07:47;2.37;73.47
75685;HTU21D;64298;46.050;38.164;2024-03-22T02:10:14;2.35;73.91
75685;HTU21D;64298;46.050;38.164;2024-03-22T02:12:40;2.35;73.77
75685;HTU21D;64298;46.050;38.164;2024-03-22T02:15:07;2.35;73.74
75685;HTU21D;64298;46.050;38.164;2024-03-22T02:17:35;2.36;73.70
75685;HTU21D;64298;46.050;38.164;2024-03-22T02:20:02;2.35;73.79
75685;HTU21D;64298;46.050;38.164;2024-03-22T02:22:29;2.36;73.64
75685;HTU21D;64298;46.050;38.164;2024-03-22T02:24:55;2.34;73.72
75685;HTU21D;64298;46.050;38.164;2024-03-22T02:27:21;2.34;73.64
75685;HTU21D;64298;46.050;38.164;2024-03-22T02:29:47;2.32;73.70
75685;HTU21D;64298;46.050;38.164;2024-03-22T02:32:13;2.30;73.78
75685;HTU21D;64298;46.050;38.164;2024-03-22T02:34:39;2.26;73.93
75685;HTU21D;64298;46.050;38.164;2024-03-22T02:37:05;2.25;73.97
75685;HTU21D;64298;46.050;38.164;2024-03-22T02:39:30;2.22;74.27
75685;HTU21D;64298;46.050;38.164;2024-03-22T02:41:56;2.20;74.09
75685;HTU21D;64298;46.050;38.164;2024-03-22T02:44:22;2.16;74.21
75685;HTU21D;64298;46.050;38.164;2024-03-22T02:46:48;2.14;74.54
75685;HTU21D;64298;46.050;38.164;2024-03-22T02:49:14;2.08;74.74
75685;HTU21D;64298;46.050;38.164;2024-03-22T02:51:40;2.02;74.98
75685;HTU21D;64298;46.050;38.164;2024-03-22T02:54:06;1.97;75.41
75685;HTU21D;64298;46.050;38.164;2024-03-22T02:56:32;1.93;75.22
75685;HTU21D;64298;46.050;38.164;2024-03-22T02:58:58;1.93;75.31
75685;HTU21D;64298;46.050;38.164;2024-03-22T03:01:24;1.94;75.22
75685;HTU21D;64298;46.050;38.164;2024-03-22T03:03:50;1.97;74.99
75685;HTU21D;64298;46.050;38.164;2024-03-22T03:06:16;1.96;75.06
75685;HTU21D;64298;46.050;38.164;2024-03-22T03:08:43;2.00;74.81
75685;HTU21D;64298;46.050;38.164;2024-03-22T03:11:09;2.03;74.74
75685;HTU21D;64298;46.050;38.164;2024-03-22T03:13:35;2.03;74.99
75685;HTU21D;64298;46.050;38.164;2024-03-22T03:16:03;2.02;74.87
75685;HTU21D;64298;46.050;38.164;2024-03-22T03:18:29;2.03;74.79
75685;HTU21D;64298;46.050;38.164;2024-03-22T03:20:55;2.02;74.83
75685;HTU21D;64298;46.050;38.164;2024-03-22T03:23:21;2.01;74.83
75685;HTU21D;64298;46.050;38.164;2024-03-22T03:25:47;1.99;75.09
75685;HTU21D;64298;46.050;38.164;2024-03-22T03:28:13;1.96;75.12
75685;HTU21D;64298;46.050;38.164;2024-03-22T03:30:39;1.92;75.25
75685;HTU21D;64298;46.050;38.164;2024-03-22T03:33:05;1.92;75.36
75685;HTU21D;64298;46.050;38.164;2024-03-22T03:35:31;1.92;75.10
75685;HTU21D;64298;46.050;38.164;2024-03-22T03:37:57;1.93;74.98
75685;HTU21D;64298;46.050;38.164;2024-03-22T03:40:23;1.94;75.14
75685;HTU21D;64298;46.050;38.164;2024-03-22T03:42:50;1.94;74.90
75685;HTU21D;64298;46.050;38.164;2024-03-22T03:45:16;1.96;74.77
75685;HTU21D;64298;46.050;38.164;2024-03-22T03:47:42;1.98;74.65
75685;HTU21D;64298;46.050;38.164;2024-03-22T03:50:09;1.99;74.67
75685;HTU21D;64298;46.050;38.164;2024-03-22T03:52:35;1.98;74.96
75685;HTU21D;64298;46.050;38.164;2024-03-22T03:55:01;1.95;75.25
75685;HTU21D;64298;46.050;38.164;2024-03-22T03:57:27;1.93;75.03
75685;HTU21D;64298;46.050;38.164;2024-03-22T03:59:53;1.93;75.12
75685;HTU21D;64298;46.050;38.164;2024-03-22T04:02:19;1.94;75.30
75685;HTU21D;64298;46.050;38.164;2024-03-22T04:04:45;1.92;75.30
75685;HTU21D;64298;46.050;38.164;2024-03-22T04:07:10;1.90;75.64
75685;HTU21D;64298;46.050;38.164;2024-03-22T04:09:36;1.85;75.95
75685;HTU21D;64298;46.050;38.164;2024-03-22T04:12:02;1.81;76.21
75685;HTU21D;64298;46.050;38.164;2024-03-22T04:14:28;1.78;76.38
75685;HTU21D;64298;46.050;38.164;2024-03-22T04:16:54;1.78;76.25
75685;HTU21D;64298;46.050;38.164;2024-03-22T04:19:40;1.83;76.04
75685;HTU21D;64298;46.050;38.164;2024-03-22T04:22:06;1.85;76.19
75685;HTU21D;64298;46.050;38.164;2024-03-22T04:24:32;1.86;76.27
75685;HTU21D;64298;46.050;38.164;2024-03-22T04:26:58;1.86;76.56
75685;HTU21D;64298;46.050;38.164;2024-03-22T04:29:24;1.86;76.59
75685;HTU21D;64298;46.050;38.164;2024-03-22T04:31:50;1.87;76.65
75685;HTU21D;64298;46.050;38.164;2024-03-22T04:34:16;1.91;76.54
75685;HTU21D;64298;46.050;38.164;2024-03-22T04:36:42;1.92;76.66
75685;HTU21D;64298;46.050;38.164;2024-03-22T04:39:07;1.95;76.61
75685;HTU21D;64298;46.050;38.164;2024-03-22T04:41:35;1.96;76.51
75685;HTU21D;64298;46.050;38.164;2024-03-22T04:44:01;1.98;76.68
75685;HTU21D;64298;46.050;38.164;2024-03-22T04:46:27;2.02;76.59
75685;HTU21D;64298;46.050;38.164;2024-03-22T04:48:53;2.09;76.49
75685;HTU21D;64298;46.050;38.164;2024-03-22T04:51:19;2.16;76.46
75685;HTU21D;64298;46.050;38.164;2024-03-22T04:53:45;2.24;76.28
75685;HTU21D;64298;46.050;38.164;2024-03-22T04:56:11;2.31;76.20
75685;HTU21D;64298;46.050;38.164;2024-03-22T04:58:37;2.43;76.05
75685;HTU21D;64298;46.050;38.164;2024-03-22T05:01:03;2.50;75.94
75685;HTU21D;64298;46.050;38.164;2024-03-22T05:03:29;2.56;75.95
75685;HTU21D;64298;46.050;38.164;2024-03-22T05:05:55;2.59;75.99
75685;HTU21D;64298;46.050;38.164;2024-03-22T05:08:23;2.66;76.08
75685;HTU21D;64298;46.050;38.164;2024-03-22T05:10:49;2.72;76.00
75685;HTU21D;64298;46.050;38.164;2024-03-22T05:13:14;2.81;75.90
75685;HTU21D;64298;46.050;38.164;2024-03-22T05:15:59;2.86;75.79
75685;HTU21D;64298;46.050;38.164;2024-03-22T05:18:25;2.95;75.75
75685;HTU21D;64298;46.050;38.164;2024-03-22T05:20:51;2.99;75.61
75685;HTU21D;64298;46.050;38.164;2024-03-22T05:23:35;3.00;75.63
75685;HTU21D;64298;46.050;38.164;2024-03-22T05:26:01;2.99;75.75
75685;HTU21D;64298;46.050;38.164;2024-03-22T05:28:29;2.98;75.97
75685;HTU21D;64298;46.050;38.164;2024-03-22T05:30:56;3.03;75.96
75685;HTU21D;64298;46.050;38.164;2024-03-22T05:33:22;3.09;75.98
75685;HTU21D;64298;46.050;38.164;2024-03-22T05:35:48;3.16;75.92
75685;HTU21D;64298;46.050;38.164;2024-03-22T05:38:14;3.25;75.89
75685;HTU21D;64298;46.050;38.164;2024-03-22T05:40:58;3.33;75.66
75685;HTU21D;64298;46.050;38.164;2024-03-22T05:43:29;3.40;75.49
75685;HTU21D;64298;46.050;38.164;2024-03-22T05:45:54;3.46;75.30
75685;HTU21D;64298;46.050;38.164;2024-03-22T05:48:39;3.53;75.13
75685;HTU21D;64298;46.050;38.164;2024-03-22T05:51:05;3.48;75.14
75685;HTU21D;64298;46.050;38.164;2024-03-22T05:53:31;3.43;75.21
75685;HTU21D;64298;46.050;38.164;2024-03-22T05:55:57;3.43;75.18
75685;HTU21D;64298;46.050;38.164;2024-03-22T05:58:22;3.42;75.25
75685;HTU21D;64298;46.050;38.164;2024-03-22T06:00:48;3.43;75.32
75685;HTU21D;64298;46.050;38.164;2024-03-22T06:03:14;3.46;75.28
75685;HTU21D;64298;46.050;38.164;2024-03-22T06:05:40;3.49;75.14
75685;HTU21D;64298;46.050;38.164;2024-03-22T06:08:06;3.52;75.10
75685;HTU21D;64298;46.050;38.164;2024-03-22T06:10:33;3.61;75.09
75685;HTU21D;64298;46.050;38.164;2024-03-22T06:12:59;3.72;74.91
75685;HTU21D;64298;46.050;38.164;2024-03-22T06:15:25;3.88;74.52
75685;HTU21D;64298;46.050;38.164;2024-03-22T06:17:51;3.94;74.30
75685;HTU21D;64298;46.050;38.164;2024-03-22T06:20:17;4.04;74.10
75685;HTU21D;64298;46.050;38.164;2024-03-22T06:22:43;4.12;73.94
75685;HTU21D;64298;46.050;38.164;2024-03-22T06:25:08;4.20;73.72
75685;HTU21D;64298;46.050;38.164;2024-03-22T06:27:34;4.29;73.56
75685;HTU21D;64298;46.050;38.164;2024-03-22T06:30:00;4.38;73.40
75685;HTU21D;64298;46.050;38.164;2024-03-22T06:32:26;4.46;73.09
75685;HTU21D;64298;46.050;38.164;2024-03-22T06:34:52;4.50;73.01
75685;HTU21D;64298;46.050;38.164;2024-03-22T06:37:18;4.66;72.85
75685;HTU21D;64298;46.050;38.164;2024-03-22T06:39:44;4.83;72.48
75685;HTU21D;64298;46.050;38.164;2024-03-22T06:42:10;5.04;72.03
75685;HTU21D;64298;46.050;38.164;2024-03-22T06:44:36;5.25;71.58
75685;HTU21D;64298;46.050;38.164;2024-03-22T06:47:02;5.54;71.00
75685;HTU21D;64298;46.050;38.164;2024-03-22T06:49:28;5.83;70.32
75685;HTU21D;64298;46.050;38.164;2024-03-22T06:51:54;5.97;69.59
75685;HTU21D;64298;46.050;38.164;2024-03-22T06:54:38;6.06;69.26
75685;HTU21D;64298;46.050;38.164;2024-03-22T06:57:04;6.07;69.00
75685;HTU21D;64298;46.050;38.164;2024-03-22T06:59:30;6.12;69.27
75685;HTU21D;64298;46.050;38.164;2024-03-22T07:01:56;6.19;69.04
75685;HTU21D;64298;46.050;38.164;2024-03-22T07:04:22;6.15;69.00
75685;HTU21D;64298;46.050;38.164;2024-03-22T07:06:48;6.12;69.04
75685;HTU21D;64298;46.050;38.164;2024-03-22T07:09:14;6.07;69.25
75685;HTU21D;64298;46.050;38.164;2024-03-22T07:11:41;6.08;69.10
75685;HTU21D;64298;46.050;38.164;2024-03-22T07:14:07;6.00;69.00
75685;HTU21D;64298;46.050;38.164;2024-03-22T07:16:33;5.98;69.16
75685;HTU21D;64298;46.050;38.164;2024-03-22T07:18:59;6.05;69.16
75685;HTU21D;64298;46.050;38.164;2024-03-22T07:21:44;6.15;68.89
75685;HTU21D;64298;46.050;38.164;2024-03-22T07:24:10;6.19;68.49
75685;HTU21D;64298;46.050;38.164;2024-03-22T07:26:36;6.22;68.50
75685;HTU21D;64298;46.050;38.164;2024-03-22T07:29:02;6.20;68.50
75685;HTU21D;64298;46.050;38.164;2024-03-22T07:31:28;6.24;68.54
75685;HTU21D;64298;46.050;38.164;2024-03-22T07:33:54;6.22;68.35
75685;HTU21D;64298;46.050;38.164;2024-03-22T07:36:21;6.19;68.31
75685;HTU21D;64298;46.050;38.164;2024-03-22T07:38:47;6.11;68.52
75685;HTU21D;64298;46.050;38.164;2024-03-22T07:41:14;6.11;68.74
75685;HTU21D;64298;46.050;38.164;2024-03-22T07:43:40;6.14;68.65
75685;HTU21D;64298;46.050;38.164;2024-03-22T07:46:06;6.19;68.65
75685;HTU21D;64298;46.050;38.164;2024-03-22T07:48:32;6.24;68.55
75685;HTU21D;64298;46.050;38.164;2024-03-22T07:51:00;6.33;68.34
75685;HTU21D;64298;46.050;38.164;2024-03-22T07:53:27;6.38;68.33
75685;HTU21D;64298;46.050;38.164;2024-03-22T07:55:53;6.46;68.17
75685;HTU21D;64298;46.050;38.164;2024-03-22T07:58:19;6.55;68.06
75685;HTU21D;64298;46.050;38.164;2024-03-22T08:00:45;6.66;67.77
75685;HTU21D;64298;46.050;38.164;2024-03-22T08:03:15;6.72;67.70
75685;HTU21D;64298;46.050;38.164;2024-03-22T08:05:41;6.78;67.36
75685;HTU21D;64298;46.050;38.164;2024-03-22T08:08:07;6.83;67.53
75685;HTU21D;64298;46.050;38.164;2024-03-22T08:10:33;6.94;67.26
75685;HTU21D;64298;46.050;38.164;2024-03-22T08:13:00;7.00;67.15
75685;HTU21D;64298;46.050;38.164;2024-03-22T08:15:29;7.07;66.99
75685;HTU21D;64298;46.050;38.164;2024-03-22T08:17:55;7.18;66.73
75685;HTU21D;64298;46.050;38.164;2024-03-22T08:20:24;7.32;66.60
75685;HTU21D;64298;46.050;38.164;2024-03-22T08:22:50;7.47;66.29
75685;HTU21D;64298;46.050;38.164;2024-03-22T08:25:16;7.59;66.17
75685;HTU21D;64298;46.050;38.164;2024-03-22T08:27:43;7.73;65.90
75685;HTU21D;64298;46.050;38.164;2024-03-22T08:30:10;7.74;65.62
75685;HTU21D;64298;46.050;38.164;2024-03-22T08:32:36;7.73;65.62
75685;HTU21D;64298;46.050;38.164;2024-03-22T08:35:03;7.77;65.72
75685;HTU21D;64298;46.050;38.164;2024-03-22T08:37:30;7.79;65.57
75685;HTU21D;64298;46.050;38.164;2024-03-22T08:39:56;7.75;65.47
75685;HTU21D;64298;46.050;38.164;2024-03-22T08:42:22;7.70;65.45
75685;HTU21D;64298;46.050;38.164;2024-03-22T08:44:48;7.73;65.64
75685;HTU21D;64298;46.050;38.164;2024-03-22T08:47:14;7.74;65.30
75685;HTU21D;64298;46.050;38.164;2024-03-22T08:49:40;7.73;65.48
75685;HTU21D;64298;46.050;38.164;2024-03-22T08:52:09;7.77;65.59
75685;HTU21D;64298;46.050;38.164;2024-03-22T08:54:35;7.77;65.34
75685;HTU21D;64298;46.050;38.164;2024-03-22T08:57:01;7.81;65.34
75685;HTU21D;64298;46.050;38.164;2024-03-22T08:59:27;7.83;65.06
75685;HTU21D;64298;46.050;38.164;2024-03-22T09:01:53;7.84;65.04
75685;HTU21D;64298;46.050;38.164;2024-03-22T09:04:19;7.86;64.87
75685;HTU21D;64298;46.050;38.164;2024-03-22T09:07:04;7.92;64.95
75685;HTU21D;64298;46.050;38.164;2024-03-22T09:09:30;8.02;64.66
75685;HTU21D;64298;46.050;38.164;2024-03-22T09:11:56;8.14;64.48
75685;HTU21D;64298;46.050;38.164;2024-03-22T09:14:22;8.22;64.17
75685;HTU21D;64298;46.050;38.164;2024-03-22T09:16:48;8.31;63.95
75685;HTU21D;64298;46.050;38.164;2024-03-22T09:19:14;8.35;63.31
75685;HTU21D;64298;46.050;38.164;2024-03-22T09:21:40;8.36;63.21
75685;HTU21D;64298;46.050;38.164;2024-03-22T09:24:24;8.51;63.47
75685;HTU21D;64298;46.050;38.164;2024-03-22T09:26:50;8.58;62.50
75685;HTU21D;64298;46.050;38.164;2024-03-22T09:29:16;8.62;62.67
75685;HTU21D;64298;46.050;38.164;2024-03-22T09:31:42;8.64;62.37
75685;HTU21D;64298;46.050;38.164;2024-03-22T09:34:08;8.63;62.60
75685;HTU21D;64298;46.050;38.164;2024-03-22T09:36:34;8.62;62.30
75685;HTU21D;64298;46.050;38.164;2024-03-22T09:39:01;8.63;62.47
75685;HTU21D;64298;46.050;38.164;2024-03-22T09:41:28;8.68;62.53
75685;HTU21D;64298;46.050;38.164;2024-03-22T09:43:58;8.73;62.30
75685;HTU21D;64298;46.050;38.164;2024-03-22T09:46:27;8.81;62.48
75685;HTU21D;64298;46.050;38.164;2024-03-22T09:48:54;8.86;61.91
75685;HTU21D;64298;46.050;38.164;2024-03-22T09:51:42;8.86;62.19
75685;HTU21D;64298;46.050;38.164;2024-03-22T09:54:11;8.85;61.59
75685;HTU21D;64298;46.050;38.164;2024-03-22T09:56:38;8.80;61.98
75685;HTU21D;64298;46.050;38.164;2024-03-22T09:59:09;8.78;61.63
75685;HTU21D;64298;46.050;38.164;2024-03-22T10:01:36;8.85;61.60
75685;HTU21D;64298;46.050;38.164;2024-03-22T10:04:02;8.87;61.47
75685;HTU21D;64298;46.050;38.164;2024-03-22T10:06:31;8.86;60.96
75685;HTU21D;64298;46.050;38.164;2024-03-22T10:08:58;8.82;61.08
75685;HTU21D;64298;46.050;38.164;2024-03-22T10:11:28;8.82;60.83
75685;HTU21D;64298;46.050;38.164;2024-03-22T10:13:53;8.79;60.72
75685;HTU21D;64298;46.050;38.164;2024-03-22T10:16:39;8.72;60.99
75685;HTU21D;64298;46.050;38.164;2024-03-22T10:19:05;8.65;60.96
75685;HTU21D;64298;46.050;38.164;2024-03-22T10:21:31;8.59;61.04
75685;HTU21D;64298;46.050;38.164;2024-03-22T10:23:57;8.55;61.00
75685;HTU21D;64298;46.050;38.164;2024-03-22T10:26:24;8.50;61.11
75685;HTU21D;64298;46.050;38.164;2024-03-22T10:28:51;8.47;60.95
75685;HTU21D;64298;46.050;38.164;2024-03-22T10:31:17;8.43;61.12
75685;HTU21D;64298;46.050;38.164;2024-03-22T10:33:46;8.46;61.26
75685;HTU21D;64298;46.050;38.164;2024-03-22T10:36:13;8.49;61.15
75685;HTU21D;64298;46.050;38.164;2024-03-22T10:38:39;8.50;60.73
75685;HTU21D;64298;46.050;38.164;2024-03-22T10:41:06;8.57;60.81
75685;HTU21D;64298;46.050;38.164;2024-03-22T10:43:32;8.65;60.38
75685;HTU21D;64298;46.050;38.164;2024-03-22T10:46:01;8.75;60.11
75685;HTU21D;64298;46.050;38.164;2024-03-22T10:48:30;8.76;59.97
75685;HTU21D;64298;46.050;38.164;2024-03-22T10:51:01;8.80;60.02
75685;HTU21D;64298;46.050;38.164;2024-03-22T10:53:30;8.80;59.86
75685;HTU21D;64298;46.050;38.164;2024-03-22T10:55:58;8.78;60.04
75685;HTU21D;64298;46.050;38.164;2024-03-22T10:58:25;8.72;59.89
75685;HTU21D;64298;46.050;38.164;2024-03-22T11:00:52;8.68;59.93
75685;HTU21D;64298;46.050;38.164;2024-03-22T11:03:25;8.70;60.18
75685;HTU21D;64298;46.050;38.164;2024-03-22T11:05:58;8.75;60.10
75685;HTU21D;64298;46.050;38.164;2024-03-22T11:08:25;8.83;60.05
75685;HTU21D;64298;46.050;38.164;2024-03-22T11:10:52;8.87;59.49
75685;HTU21D;64298;46.050;38.164;2024-03-22T11:13:18;8.81;59.32
75685;HTU21D;64298;46.050;38.164;2024-03-22T11:15:44;8.78;59.44
75685;HTU21D;64298;46.050;38.164;2024-03-22T11:18:12;8.72;59.38
75685;HTU21D;64298;46.050;38.164;2024-03-22T11:20:38;8.67;59.73
75685;HTU21D;64298;46.050;38.164;2024-03-22T11:23:05;8.71;59.65
75685;HTU21D;64298;46.050;38.164;2024-03-22T11:25:32;8.78;59.73
75685;HTU21D;64298;46.050;38.164;2024-03-22T11:27:59;8.76;59.33
75685;HTU21D;64298;46.050;38.164;2024-03-22T11:30:32;8.70;59.44
75685;HTU21D;64298;46.050;38.164;2024-03-22T11:33:02;8.63;59.55
75685;HTU21D;64298;46.050;38.164;2024-03-22T11:35:27;8.61;59.52
75685;HTU21D;64298;46.050;38.164;2024-03-22T11:37:54;8.52;59.51
75685;HTU21D;64298;46.050;38.164;2024-03-22T11:40:22;8.44;59.50
75685;HTU21D;64298;46.050;38.164;2024-03-22T11:42:50;8.44;59.76
75685;HTU21D;64298;46.050;38.164;2024-03-22T11:45:17;8.48;59.74
75685;HTU21D;64298;46.050;38.164;2024-03-22T11:47:46;8.50;59.45
75685;HTU21D;64298;46.050;38.164;2024-03-22T11:50:12;8.55;59.57
75685;HTU21D;64298;46.050;38.164;2024-03-22T11:52:42;8.53;59.13
75685;HTU21D;64298;46.050;38.164;2024-03-22T11:55:10;8.52;59.29
75685;HTU21D;64298;46.050;38.164;2024-03-22T11:57:36;8.50;59.16
75685;HTU21D;64298;46.050;38.164;2024-03-22T12:00:03;8.48;59.02
75685;HTU21D;64298;46.050;38.164;2024-03-22T12:02:40;8.48;59.12
75685;HTU21D;64298;46.050;38.164;2024-03-22T12:05:07;8.50;59.03
75685;HTU21D;64298;46.050;38.164;2024-03-22T12:07:34;8.56;59.03
75685;HTU21D;64298;46.050;38.164;2024-03-22T12:10:00;8.60;58.93
75685;HTU21D;64298;46.050;38.164;2024-03-22T12:12:26;8.61;58.86
75685;HTU21D;64298;46.050;38.164;2024-03-22T12:14:52;8.60;58.91
75685;HTU21D;64298;46.050;38.164;2024-03-22T12:17:18;8.62;58.89
75685;HTU21D;64298;46.050;38.164;2024-03-22T12:19:44;8.62;58.94
75685;HTU21D;64298;46.050;38.164;2024-03-22T12:22:10;8.60;58.74
75685;HTU21D;64298;46.050;38.164;2024-03-22T12:24:37;8.51;58.93
75685;HTU21D;64298;46.050;38.164;2024-03-22T12:27:03;8.49;58.99
75685;HTU21D;64298;46.050;38.164;2024-03-22T12:29:29;8.47;59.07
75685;HTU21D;64298;46.050;38.164;2024-03-22T12:31:55;8.48;59.02
75685;HTU21D;64298;46.050;38.164;2024-03-22T12:34:21;8.52;58.87
75685;HTU21D;64298;46.050;38.164;2024-03-22T12:36:47;8.56;58.96
75685;HTU21D;64298;46.050;38.164;2024-03-22T12:39:13;8.59;58.64
75685;HTU21D;64298;46.050;38.164;2024-03-22T12:41:39;8.58;58.50
75685;HTU21D;64298;46.050;38.164;2024-03-22T12:44:05;8.55;58.61
75685;HTU21D;64298;46.050;38.164;2024-03-22T12:46:31;8.55;58.50
75685;HTU21D;64298;46.050;38.164;2024-03-22T12:48:57;8.51;58.69
75685;HTU21D;64298;46.050;38.164;2024-03-22T12:51:23;8.49;58.64
75685;HTU21D;64298;46.050;38.164;2024-03-22T12:53:49;8.49;58.82
75685;HTU21D;64298;46.050;38.164;2024-03-22T12:56:15;8.53;58.83
75685;HTU21D;64298;46.050;38.164;2024-03-22T12:58:41;8.56;58.59
75685;HTU21D;64298;46.050;38.164;2024-03-22T13:01:08;8.58;58.62
75685;HTU21D;64298;46.050;38.164;2024-03-22T13:03:37;8.64;58.70
75685;HTU21D;64298;46.050;38.164;2024-03-22T13:06:04;8.65;58.32
75685;HTU21D;64298;46.050;38.164;2024-03-22T13:08:33;8.51;58.29
75685;HTU21D;64298;46.050;38.164;2024-03-22T13:10:59;8.48;58.58
75685;HTU21D;64298;46.050;38.164;2024-03-22T13:13:25;8.46;58.57
75685;HTU21D;64298;46.050;38.164;2024-03-22T13:15:51;8.45;58.55
75685;HTU21D;64298;46.050;38.164;2024-03-22T13:18:17;8.46;58.65
75685;HTU21D;64298;46.050;38.164;2024-03-22T13:20:43;8.47;58.52
75685;HTU21D;64298;46.050;38.164;2024-03-22T13:23:09;8.46;58.42
75685;HTU21D;64298;46.050;38.164;2024-03-22T13:25:37;8.43;58.51
75685;HTU21D;64298;46.050;38.164;2024-03-22T13:28:04;8.44;58.67
75685;HTU21D;64298;46.050;38.164;2024-03-22T13:30:31;8.52;58.77
75685;HTU21D;64298;46.050;38.164;2024-03-22T13:32:57;8.56;58.70
75685;HTU21D;64298;46.050;38.164;2024-03-22T13:35:24;8.59;58.62
75685;HTU21D;64298;46.050;38.164;2024-03-22T13:37:50;8.65;58.67
75685;HTU21D;64298;46.050;38.164;2024-03-22T13:40:16;8.68;58.40
75685;HTU21D;64298;46.050;38.164;2024-03-22T13:42:42;8.68;58.07
75685;HTU21D;64298;46.050;38.164;2024-03-22T13:45:08;8.64;58.18
75685;HTU21D;64298;46.050;38.164;2024-03-22T13:47:34;8.65;57.97
75685;HTU21D;64298;46.050;38.164;2024-03-22T13:50:04;8.60;58.13
75685;HTU21D;64298;46.050;38.164;2024-03-22T13:52:31;8.67;58.30
75685;HTU21D;64298;46.050;38.164;2024-03-22T13:54:57;8.81;58.10
75685;HTU21D;64298;46.050;38.164;2024-03-22T13:57:25;8.85;57.65
75685;HTU21D;64298;46.050;38.164;2024-03-22T13:59:51;8.71;57.72
75685;HTU21D;64298;46.050;38.164;2024-03-22T14:02:17;8.65;57.87
75685;HTU21D;64298;46.050;38.164;2024-03-22T14:04:44;8.56;57.85
75685;HTU21D;64298;46.050;38.164;2024-03-22T14:07:10;8.45;57.87
75685;HTU21D;64298;46.050;38.164;2024-03-22T14:09:36;8.37;57.96
75685;HTU21D;64298;46.050;38.164;2024-03-22T14:12:02;8.31;57.97
75685;HTU21D;64298;46.050;38.164;2024-03-22T14:14:28;8.29;58.16
75685;HTU21D;64298;46.050;38.164;2024-03-22T14:16:55;8.28;58.13
75685;HTU21D;64298;46.050;38.164;2024-03-22T14:19:21;8.27;58.13
75685;HTU21D;64298;46.050;38.164;2024-03-22T14:21:47;8.29;58.25
75685;HTU21D;64298;46.050;38.164;2024-03-22T14:24:13;8.27;57.96
75685;HTU21D;64298;46.050;38.164;2024-03-22T14:26:39;8.17;58.06
75685;HTU21D;64298;46.050;38.164;2024-03-22T14:29:09;8.12;58.27
75685;HTU21D;64298;46.050;38.164;2024-03-22T14:31:36;8.13;58.44
75685;HTU21D;64298;46.050;38.164;2024-03-22T14:34:02;8.16;58.49
75685;HTU21D;64298;46.050;38.164;2024-03-22T14:36:28;8.11;58.40
75685;HTU21D;64298;46.050;38.164;2024-03-22T14:38:54;8.04;58.50
75685;HTU21D;64298;46.050;38.164;2024-03-22T14:41:38;8.02;58.60
75685;HTU21D;64298;46.050;38.164;2024-03-22T14:44:04;7.98;58.62
75685;HTU21D;64298;46.050;38.164;2024-03-22T14:46:31;7.96;58.60
75685;HTU21D;64298;46.050;38.164;2024-03-22T14:48:57;7.92;58.71
75685;HTU21D;64298;46.050;38.164;2024-03-22T14:51:24;7.92;58.77
75685;HTU21D;64298;46.050;38.164;2024-03-22T14:53:50;7.91;58.86
75685;HTU21D;64298;46.050;38.164;2024-03-22T14:56:16;7.88;58.96
75685;HTU21D;64298;46.050;38.164;2024-03-22T14:58:44;7.87;59.01
75685;HTU21D;64298;46.050;38.164;2024-03-22T15:01:10;7.85;59.05
75685;HTU21D;64298;46.050;38.164;2024-03-22T15:03:36;7.84;59.05
75685;HTU21D;64298;46.050;38.164;2024-03-22T15:06:02;7.83;59.07
75685;HTU21D;64298;46.050;38.164;2024-03-22T15:08:29;7.77;59.10
75685;HTU21D;64298;46.050;38.164;2024-03-22T15:10:55;7.73;59.21
75685;HTU21D;64298;46.050;38.164;2024-03-22T15:13:21;7.72;59.26